sensor_id;sensor_type;location;lat;lon;timestamp;P1;durP1;ratioP1;P2;durP2;ratioP2
9918;SDS011;4998;51.024;13.828;2023-03-23T00:02:00;1.87;;;1.70;;
9918;SDS011;4998;51.024;13.828;2023-03-23T00:04:27;1.63;;;1.53;;
9918;SDS011;4998;51.024;13.828;2023-03-23T00:06:55;1.93;;;1.70;;
9918;SDS011;4998;51.024;13.828;2023-03-23T00:09:25;1.70;;;1.60;;
9918;SDS011;4998;51.024;13.828;2023-03-23T00:11:52;1.60;;;1.50;;
9918;SDS011;4998;51.024;13.828;2023-03-23T00:14:23;1.70;;;1.60;;
9918;SDS011;4998;51.024;13.828;2023-03-23T00:16:50;1.43;;;1.33;;
9918;SDS011;4998;51.024;13.828;2023-03-23T00:19:17;1.50;;;1.40;;
9918;SDS011;4998;51.024;13.828;2023-03-23T00:21:45;1.50;;;1.40;;
9918;SDS011;4998;51.024;13.828;2023-03-23T00:24:13;1.47;;;1.37;;
9918;SDS011;4998;51.024;13.828;2023-03-23T00:26:42;1.80;;;1.53;;
9918;SDS011;4998;51.024;13.828;2023-03-23T00:29:12;1.43;;;1.33;;
9918;SDS011;4998;51.024;13.828;2023-03-23T00:31:43;2.70;;;1.30;;
9918;SDS011;4998;51.024;13.828;2023-03-23T00:34:13;1.70;;;1.60;;
9918;SDS011;4998;51.024;13.828;2023-03-23T00:36:45;1.30;;;1.30;;
9918;SDS011;4998;51.024;13.828;2023-03-23T00:39:13;1.33;;;1.23;;
9918;SDS011;4998;51.024;13.828;2023-03-23T00:41:41;1.80;;;1.47;;
9918;SDS011;4998;51.024;13.828;2023-03-23T00:44:08;1.50;;;1.40;;
9918;SDS011;4998;51.024;13.828;2023-03-23T00:46:43;1.97;;;1.40;;
9918;SDS011;4998;51.024;13.828;2023-03-23T00:49:14;2.40;;;1.47;;
9918;SDS011;4998;51.024;13.828;2023-03-23T00:51:43;1.83;;;1.50;;
9918;SDS011;4998;51.024;13.828;2023-03-23T00:54:10;1.40;;;1.30;;
9918;SDS011;4998;51.024;13.828;2023-03-23T00:56:38;1.10;;;1.10;;
9918;SDS011;4998;51.024;13.828;2023-03-23T00:59:05;1.30;;;1.20;;
9918;SDS011;4998;51.024;13.828;2023-03-23T01:01:32;1.20;;;1.10;;
9918;SDS011;4998;51.024;13.828;2023-03-23T01:04:01;1.10;;;1.10;;
9918;SDS011;4998;51.024;13.828;2023-03-23T01:06:30;1.30;;;1.20;;
9918;SDS011;4998;51.024;13.828;2023-03-23T01:09:00;1.50;;;1.40;;
9918;SDS011;4998;51.024;13.828;2023-03-23T01:11:28;1.50;;;1.40;;
9918;SDS011;4998;51.024;13.828;2023-03-23T01:13:56;1.10;;;1.10;;
9918;SDS011;4998;51.024;13.828;2023-03-23T01:16:23;1.40;;;1.30;;
9918;SDS011;4998;51.024;13.828;2023-03-23T01:18:50;1.30;;;1.20;;
9918;SDS011;4998;51.024;13.828;2023-03-23T01:21:19;2.70;;;1.40;;
9918;SDS011;4998;51.024;13.828;2023-03-23T01:23:47;1.37;;;1.20;;
9918;SDS011;4998;51.024;13.828;2023-03-23T01:26:15;1.20;;;1.20;;
9918;SDS011;4998;51.024;13.828;2023-03-23T01:28:44;1.30;;;1.20;;
9918;SDS011;4998;51.024;13.828;2023-03-23T01:31:13;1.17;;;1.10;;
9918;SDS011;4998;51.024;13.828;2023-03-23T01:33:42;1.00;;;1.00;;
9918;SDS011;4998;51.024;13.828;2023-03-23T01:36:10;1.00;;;1.00;;
9918;SDS011;4998;51.024;13.828;2023-03-23T01:38:40;1.00;;;1.00;;
9918;SDS011;4998;51.024;13.828;2023-03-23T01:41:08;1.00;;;1.00;;
9918;SDS011;4998;51.024;13.828;2023-03-23T01:43:35;2.40;;;1.23;;
9918;SDS011;4998;51.024;13.828;2023-03-23T01:46:19;1.90;;;1.00;;
9918;SDS011;4998;51.024;13.828;2023-03-23T01:48:47;1.10;;;1.10;;
9918;SDS011;4998;51.024;13.828;2023-03-23T01:51:16;0.90;;;0.90;;
9918;SDS011;4998;51.024;13.828;2023-03-23T01:53:47;1.33;;;1.27;;
9918;SDS011;4998;51.024;13.828;2023-03-23T01:56:18;1.00;;;1.00;;
9918;SDS011;4998;51.024;13.828;2023-03-23T01:58:50;1.00;;;1.00;;
9918;SDS011;4998;51.024;13.828;2023-03-23T02:01:18;1.07;;;1.07;;
9918;SDS011;4998;51.024;13.828;2023-03-23T02:03:49;1.17;;;0.90;;
9918;SDS011;4998;51.024;13.828;2023-03-23T02:06:19;1.00;;;1.00;;
9918;SDS011;4998;51.024;13.828;2023-03-23T02:08:48;1.10;;;1.10;;
9918;SDS011;4998;51.024;13.828;2023-03-23T02:11:17;1.00;;;1.00;;
9918;SDS011;4998;51.024;13.828;2023-03-23T02:13:46;0.80;;;0.80;;
9918;SDS011;4998;51.024;13.828;2023-03-23T02:16:16;1.10;;;0.93;;
9918;SDS011;4998;51.024;13.828;2023-03-23T02:19:01;1.23;;;1.13;;
9918;SDS011;4998;51.024;13.828;2023-03-23T02:21:56;1.10;;;1.00;;
9918;SDS011;4998;51.024;13.828;2023-03-23T02:25:00;0.90;;;0.90;;
9918;SDS011;4998;51.024;13.828;2023-03-23T02:27:57;0.80;;;0.80;;
9918;SDS011;4998;51.024;13.828;2023-03-23T02:30:40;1.00;;;1.00;;
9918;SDS011;4998;51.024;13.828;2023-03-23T02:33:22;0.97;;;0.97;;
9918;SDS011;4998;51.024;13.828;2023-03-23T02:36:03;1.00;;;1.00;;
9918;SDS011;4998;51.024;13.828;2023-03-23T02:38:38;1.03;;;1.00;;
9918;SDS011;4998;51.024;13.828;2023-03-23T02:41:09;0.90;;;0.90;;
9918;SDS011;4998;51.024;13.828;2023-03-23T02:43:40;1.00;;;1.00;;
9918;SDS011;4998;51.024;13.828;2023-03-23T02:46:11;2.03;;;0.93;;
9918;SDS011;4998;51.024;13.828;2023-03-23T02:48:41;0.87;;;0.87;;
9918;SDS011;4998;51.024;13.828;2023-03-23T02:51:10;0.97;;;0.97;;
9918;SDS011;4998;51.024;13.828;2023-03-23T02:53:39;0.90;;;0.90;;
9918;SDS011;4998;51.024;13.828;2023-03-23T02:56:08;2.30;;;1.00;;
9918;SDS011;4998;51.024;13.828;2023-03-23T02:58:38;1.30;;;1.00;;
9918;SDS011;4998;51.024;13.828;2023-03-23T03:01:16;1.00;;;0.87;;
9918;SDS011;4998;51.024;13.828;2023-03-23T03:04:17;0.80;;;0.80;;
9918;SDS011;4998;51.024;13.828;2023-03-23T03:06:48;1.00;;;1.00;;
9918;SDS011;4998;51.024;13.828;2023-03-23T03:09:29;1.00;;;0.90;;
9918;SDS011;4998;51.024;13.828;2023-03-23T03:12:04;1.10;;;1.10;;
9918;SDS011;4998;51.024;13.828;2023-03-23T03:14:37;3.43;;;1.03;;
9918;SDS011;4998;51.024;13.828;2023-03-23T03:17:10;1.23;;;1.13;;
9918;SDS011;4998;51.024;13.828;2023-03-23T03:19:43;1.07;;;0.90;;
9918;SDS011;4998;51.024;13.828;2023-03-23T03:22:14;1.17;;;1.07;;
9918;SDS011;4998;51.024;13.828;2023-03-23T03:24:43;1.00;;;1.00;;
9918;SDS011;4998;51.024;13.828;2023-03-23T03:27:11;1.40;;;1.30;;
9918;SDS011;4998;51.024;13.828;2023-03-23T03:29:42;1.00;;;1.00;;
9918;SDS011;4998;51.024;13.828;2023-03-23T03:32:15;1.37;;;1.27;;
9918;SDS011;4998;51.024;13.828;2023-03-23T03:34:46;2.87;;;1.07;;
9918;SDS011;4998;51.024;13.828;2023-03-23T03:37:15;2.30;;;1.03;;
9918;SDS011;4998;51.024;13.828;2023-03-23T03:39:43;1.40;;;1.30;;
9918;SDS011;4998;51.024;13.828;2023-03-23T03:42:11;1.07;;;1.07;;
9918;SDS011;4998;51.024;13.828;2023-03-23T03:44:38;1.63;;;1.53;;
9918;SDS011;4998;51.024;13.828;2023-03-23T03:47:05;2.97;;;1.40;;
9918;SDS011;4998;51.024;13.828;2023-03-23T03:49:32;1.37;;;1.30;;
9918;SDS011;4998;51.024;13.828;2023-03-23T03:52:01;1.30;;;1.20;;
9918;SDS011;4998;51.024;13.828;2023-03-23T03:54:29;1.73;;;1.57;;
9918;SDS011;4998;51.024;13.828;2023-03-23T03:56:56;2.10;;;1.20;;
9918;SDS011;4998;51.024;13.828;2023-03-23T03:59:23;1.50;;;1.40;;
9918;SDS011;4998;51.024;13.828;2023-03-23T04:01:50;1.77;;;1.50;;
9918;SDS011;4998;51.024;13.828;2023-03-23T04:04:19;1.70;;;1.40;;
9918;SDS011;4998;51.024;13.828;2023-03-23T04:06:47;2.80;;;1.60;;
9918;SDS011;4998;51.024;13.828;2023-03-23T04:09:16;1.60;;;1.50;;
9918;SDS011;4998;51.024;13.828;2023-03-23T04:11:44;1.47;;;1.37;;
9918;SDS011;4998;51.024;13.828;2023-03-23T04:14:11;1.43;;;1.33;;
9918;SDS011;4998;51.024;13.828;2023-03-23T04:16:38;2.20;;;1.67;;
9918;SDS011;4998;51.024;13.828;2023-03-23T04:19:06;1.70;;;1.60;;
9918;SDS011;4998;51.024;13.828;2023-03-23T04:21:33;1.50;;;1.40;;
9918;SDS011;4998;51.024;13.828;2023-03-23T04:24:00;1.60;;;1.50;;
9918;SDS011;4998;51.024;13.828;2023-03-23T04:26:29;1.97;;;1.70;;
9918;SDS011;4998;51.024;13.828;2023-03-23T04:28:57;1.67;;;1.57;;
9918;SDS011;4998;51.024;13.828;2023-03-23T04:31:25;1.57;;;1.43;;
9918;SDS011;4998;51.024;13.828;2023-03-23T04:33:52;1.57;;;1.47;;
9918;SDS011;4998;51.024;13.828;2023-03-23T04:36:19;2.20;;;1.47;;
9918;SDS011;4998;51.024;13.828;2023-03-23T04:38:47;3.10;;;1.80;;
9918;SDS011;4998;51.024;13.828;2023-03-23T04:41:19;1.60;;;1.50;;
9918;SDS011;4998;51.024;13.828;2023-03-23T04:43:48;1.63;;;1.40;;
9918;SDS011;4998;51.024;13.828;2023-03-23T04:46:18;2.47;;;1.60;;
9918;SDS011;4998;51.024;13.828;2023-03-23T04:48:46;2.00;;;1.90;;
9918;SDS011;4998;51.024;13.828;2023-03-23T04:51:14;1.60;;;1.50;;
9918;SDS011;4998;51.024;13.828;2023-03-23T04:53:41;1.53;;;1.33;;
9918;SDS011;4998;51.024;13.828;2023-03-23T04:56:08;1.93;;;1.50;;
9918;SDS011;4998;51.024;13.828;2023-03-23T04:58:38;1.80;;;1.63;;
9918;SDS011;4998;51.024;13.828;2023-03-23T05:01:07;1.60;;;1.50;;
9918;SDS011;4998;51.024;13.828;2023-03-23T05:03:34;2.10;;;1.60;;
9918;SDS011;4998;51.024;13.828;2023-03-23T05:06:01;1.73;;;1.63;;
9918;SDS011;4998;51.024;13.828;2023-03-23T05:08:29;1.63;;;1.47;;
9918;SDS011;4998;51.024;13.828;2023-03-23T05:10:57;1.67;;;1.57;;
9918;SDS011;4998;51.024;13.828;2023-03-23T05:13:26;1.70;;;1.50;;
9918;SDS011;4998;51.024;13.828;2023-03-23T05:15:54;2.10;;;1.60;;
9918;SDS011;4998;51.024;13.828;2023-03-23T05:18:23;2.20;;;1.30;;
9918;SDS011;4998;51.024;13.828;2023-03-23T05:20:51;1.60;;;1.50;;
9918;SDS011;4998;51.024;13.828;2023-03-23T05:23:18;1.70;;;1.60;;
9918;SDS011;4998;51.024;13.828;2023-03-23T05:25:52;2.43;;;1.50;;
9918;SDS011;4998;51.024;13.828;2023-03-23T05:28:20;3.00;;;1.33;;
9918;SDS011;4998;51.024;13.828;2023-03-23T05:30:48;2.80;;;1.60;;
9918;SDS011;4998;51.024;13.828;2023-03-23T05:33:15;2.13;;;1.93;;
9918;SDS011;4998;51.024;13.828;2023-03-23T05:35:44;1.43;;;1.30;;
9918;SDS011;4998;51.024;13.828;2023-03-23T05:38:13;1.73;;;1.43;;
9918;SDS011;4998;51.024;13.828;2023-03-23T05:40:41;2.17;;;1.70;;
9918;SDS011;4998;51.024;13.828;2023-03-23T05:43:08;3.83;;;1.93;;
9918;SDS011;4998;51.024;13.828;2023-03-23T05:45:36;4.63;;;1.70;;
9918;SDS011;4998;51.024;13.828;2023-03-23T05:48:03;1.60;;;1.50;;
9918;SDS011;4998;51.024;13.828;2023-03-23T05:50:31;1.70;;;1.60;;
9918;SDS011;4998;51.024;13.828;2023-03-23T05:52:59;1.60;;;1.40;;
9918;SDS011;4998;51.024;13.828;2023-03-23T05:55:29;2.43;;;1.67;;
9918;SDS011;4998;51.024;13.828;2023-03-23T05:57:56;1.50;;;1.40;;
9918;SDS011;4998;51.024;13.828;2023-03-23T06:00:24;2.00;;;1.80;;
9918;SDS011;4998;51.024;13.828;2023-03-23T06:02:55;1.90;;;1.80;;
9918;SDS011;4998;51.024;13.828;2023-03-23T06:05:23;2.60;;;1.40;;
9918;SDS011;4998;51.024;13.828;2023-03-23T06:07:51;1.53;;;1.43;;
9918;SDS011;4998;51.024;13.828;2023-03-23T06:10:20;2.17;;;1.67;;
9918;SDS011;4998;51.024;13.828;2023-03-23T06:12:49;2.60;;;1.70;;
9918;SDS011;4998;51.024;13.828;2023-03-23T06:15:17;1.77;;;1.67;;
9918;SDS011;4998;51.024;13.828;2023-03-23T06:17:44;1.63;;;1.53;;
9918;SDS011;4998;51.024;13.828;2023-03-23T06:20:12;1.83;;;1.60;;
9918;SDS011;4998;51.024;13.828;2023-03-23T06:22:40;2.10;;;1.50;;
9918;SDS011;4998;51.024;13.828;2023-03-23T06:25:07;1.70;;;1.60;;
9918;SDS011;4998;51.024;13.828;2023-03-23T06:27:37;1.73;;;1.60;;
9918;SDS011;4998;51.024;13.828;2023-03-23T06:30:05;1.67;;;1.57;;
9918;SDS011;4998;51.024;13.828;2023-03-23T06:32:33;2.40;;;1.43;;
9918;SDS011;4998;51.024;13.828;2023-03-23T06:35:01;1.67;;;1.47;;
9918;SDS011;4998;51.024;13.828;2023-03-23T06:37:28;1.67;;;1.57;;
9918;SDS011;4998;51.024;13.828;2023-03-23T06:39:56;2.17;;;1.57;;
9918;SDS011;4998;51.024;13.828;2023-03-23T06:42:23;1.60;;;1.50;;
9918;SDS011;4998;51.024;13.828;2023-03-23T06:44:52;1.50;;;1.40;;
9918;SDS011;4998;51.024;13.828;2023-03-23T06:47:21;1.30;;;1.20;;
9918;SDS011;4998;51.024;13.828;2023-03-23T06:49:49;1.73;;;1.40;;
9918;SDS011;4998;51.024;13.828;2023-03-23T06:52:16;3.50;;;1.50;;
9918;SDS011;4998;51.024;13.828;2023-03-23T06:54:43;1.30;;;1.20;;
9918;SDS011;4998;51.024;13.828;2023-03-23T06:57:10;1.20;;;1.10;;
9918;SDS011;4998;51.024;13.828;2023-03-23T06:59:37;2.17;;;1.20;;
9918;SDS011;4998;51.024;13.828;2023-03-23T07:02:05;1.13;;;1.13;;
9918;SDS011;4998;51.024;13.828;2023-03-23T07:04:34;0.90;;;0.90;;
9918;SDS011;4998;51.024;13.828;2023-03-23T07:07:02;1.97;;;1.20;;
9918;SDS011;4998;51.024;13.828;2023-03-23T07:09:30;2.50;;;1.70;;
9918;SDS011;4998;51.024;13.828;2023-03-23T07:11:57;1.67;;;1.57;;
9918;SDS011;4998;51.024;13.828;2023-03-23T07:14:24;1.63;;;1.53;;
9918;SDS011;4998;51.024;13.828;2023-03-23T07:16:51;1.27;;;1.17;;
9918;SDS011;4998;51.024;13.828;2023-03-23T07:19:20;3.80;;;1.30;;
9918;SDS011;4998;51.024;13.828;2023-03-23T07:21:47;1.20;;;1.10;;
9918;SDS011;4998;51.024;13.828;2023-03-23T07:24:14;1.30;;;1.20;;
9918;SDS011;4998;51.024;13.828;2023-03-23T07:26:41;1.27;;;1.17;;
9918;SDS011;4998;51.024;13.828;2023-03-23T07:29:09;1.00;;;1.00;;
9918;SDS011;4998;51.024;13.828;2023-03-23T07:31:36;1.30;;;1.20;;
9918;SDS011;4998;51.024;13.828;2023-03-23T07:34:03;2.13;;;1.20;;
9918;SDS011;4998;51.024;13.828;2023-03-23T07:36:32;1.50;;;1.40;;
9918;SDS011;4998;51.024;13.828;2023-03-23T07:39:02;1.10;;;1.10;;
9918;SDS011;4998;51.024;13.828;2023-03-23T07:41:30;1.40;;;1.30;;
9918;SDS011;4998;51.024;13.828;2023-03-23T07:43:57;1.90;;;1.30;;
9918;SDS011;4998;51.024;13.828;2023-03-23T07:46:24;1.57;;;1.20;;
9918;SDS011;4998;51.024;13.828;2023-03-23T07:48:51;1.30;;;1.20;;
9918;SDS011;4998;51.024;13.828;2023-03-23T07:51:18;1.77;;;1.30;;
9918;SDS011;4998;51.024;13.828;2023-03-23T07:53:48;2.20;;;1.30;;
9918;SDS011;4998;51.024;13.828;2023-03-23T07:56:15;3.23;;;1.30;;
9918;SDS011;4998;51.024;13.828;2023-03-23T07:58:44;1.73;;;1.10;;
9918;SDS011;4998;51.024;13.828;2023-03-23T08:01:12;1.43;;;1.20;;
9918;SDS011;4998;51.024;13.828;2023-03-23T08:03:40;3.10;;;1.40;;
9918;SDS011;4998;51.024;13.828;2023-03-23T08:06:07;1.60;;;1.30;;
9918;SDS011;4998;51.024;13.828;2023-03-23T08:08:35;1.10;;;1.10;;
9918;SDS011;4998;51.024;13.828;2023-03-23T08:11:04;4.53;;;1.40;;
9918;SDS011;4998;51.024;13.828;2023-03-23T08:13:31;1.47;;;1.20;;
9918;SDS011;4998;51.024;13.828;2023-03-23T08:15:59;1.63;;;1.53;;
9918;SDS011;4998;51.024;13.828;2023-03-23T08:18:28;1.40;;;1.30;;
9918;SDS011;4998;51.024;13.828;2023-03-23T08:20:55;2.80;;;1.30;;
9918;SDS011;4998;51.024;13.828;2023-03-23T08:23:22;1.50;;;1.30;;
9918;SDS011;4998;51.024;13.828;2023-03-23T08:25:50;1.50;;;1.40;;
9918;SDS011;4998;51.024;13.828;2023-03-23T08:28:20;2.03;;;1.60;;
9918;SDS011;4998;51.024;13.828;2023-03-23T08:30:47;1.30;;;1.20;;
9918;SDS011;4998;51.024;13.828;2023-03-23T08:33:14;1.30;;;1.20;;
9918;SDS011;4998;51.024;13.828;2023-03-23T08:35:41;1.60;;;1.37;;
9918;SDS011;4998;51.024;13.828;2023-03-23T08:38:09;1.30;;;1.20;;
9918;SDS011;4998;51.024;13.828;2023-03-23T08:40:36;2.13;;;1.40;;
9918;SDS011;4998;51.024;13.828;2023-03-23T08:43:04;1.20;;;1.20;;
9918;SDS011;4998;51.024;13.828;2023-03-23T08:45:33;2.07;;;1.30;;
9918;SDS011;4998;51.024;13.828;2023-03-23T08:48:00;1.73;;;1.40;;
9918;SDS011;4998;51.024;13.828;2023-03-23T08:50:27;1.60;;;1.50;;
9918;SDS011;4998;51.024;13.828;2023-03-23T08:52:55;2.13;;;1.27;;
9918;SDS011;4998;51.024;13.828;2023-03-23T08:55:23;1.40;;;1.30;;
9918;SDS011;4998;51.024;13.828;2023-03-23T08:57:51;4.40;;;1.27;;
9918;SDS011;4998;51.024;13.828;2023-03-23T09:00:19;1.60;;;1.33;;
9918;SDS011;4998;51.024;13.828;2023-03-23T09:02:51;1.60;;;1.50;;
9918;SDS011;4998;51.024;13.828;2023-03-23T09:05:20;1.27;;;1.20;;
9918;SDS011;4998;51.024;13.828;2023-03-23T09:07:51;1.40;;;1.30;;
9918;SDS011;4998;51.024;13.828;2023-03-23T09:10:19;2.90;;;1.40;;
9918;SDS011;4998;51.024;13.828;2023-03-23T09:12:46;1.33;;;1.20;;
9918;SDS011;4998;51.024;13.828;2023-03-23T09:15:14;2.67;;;1.53;;
9918;SDS011;4998;51.024;13.828;2023-03-23T09:17:43;1.43;;;1.33;;
9918;SDS011;4998;51.024;13.828;2023-03-23T09:20:13;1.40;;;1.30;;
9918;SDS011;4998;51.024;13.828;2023-03-23T09:22:44;1.50;;;1.40;;
9918;SDS011;4998;51.024;13.828;2023-03-23T09:25:13;1.40;;;1.30;;
9918;SDS011;4998;51.024;13.828;2023-03-23T09:27:41;1.70;;;1.60;;
9918;SDS011;4998;51.024;13.828;2023-03-23T09:30:11;1.70;;;1.60;;
9918;SDS011;4998;51.024;13.828;2023-03-23T09:32:39;1.40;;;1.30;;
9918;SDS011;4998;51.024;13.828;2023-03-23T09:35:08;1.50;;;1.40;;
9918;SDS011;4998;51.024;13.828;2023-03-23T09:37:38;1.73;;;1.40;;
9918;SDS011;4998;51.024;13.828;2023-03-23T09:40:07;1.50;;;1.40;;
9918;SDS011;4998;51.024;13.828;2023-03-23T09:42:46;1.40;;;1.30;;
9918;SDS011;4998;51.024;13.828;2023-03-23T09:45:19;1.40;;;1.30;;
9918;SDS011;4998;51.024;13.828;2023-03-23T09:47:57;1.27;;;1.17;;
9918;SDS011;4998;51.024;13.828;2023-03-23T09:50:32;2.33;;;1.50;;
9918;SDS011;4998;51.024;13.828;2023-03-23T09:53:05;1.60;;;1.50;;
9918;SDS011;4998;51.024;13.828;2023-03-23T09:55:36;1.40;;;1.30;;
9918;SDS011;4998;51.024;13.828;2023-03-23T09:58:08;1.23;;;1.13;;
9918;SDS011;4998;51.024;13.828;2023-03-23T10:00:39;3.20;;;1.40;;
9918;SDS011;4998;51.024;13.828;2023-03-23T10:03:10;1.40;;;1.30;;
9918;SDS011;4998;51.024;13.828;2023-03-23T10:05:41;1.30;;;1.10;;
9918;SDS011;4998;51.024;13.828;2023-03-23T10:08:14;1.70;;;1.50;;
9918;SDS011;4998;51.024;13.828;2023-03-23T10:10:47;1.07;;;1.07;;
9918;SDS011;4998;51.024;13.828;2023-03-23T10:13:24;1.50;;;1.40;;
9918;SDS011;4998;51.024;13.828;2023-03-23T10:16:00;1.70;;;1.40;;
9918;SDS011;4998;51.024;13.828;2023-03-23T10:18:31;1.80;;;1.53;;
9918;SDS011;4998;51.024;13.828;2023-03-23T10:21:03;2.60;;;1.80;;
9918;SDS011;4998;51.024;13.828;2023-03-23T10:26:26;1.77;;;1.27;;
9918;SDS011;4998;51.024;13.828;2023-03-23T10:28:59;1.73;;;1.63;;
9918;SDS011;4998;51.024;13.828;2023-03-23T10:31:37;2.60;;;1.40;;
9918;SDS011;4998;51.024;13.828;2023-03-23T10:34:09;1.20;;;1.10;;
9918;SDS011;4998;51.024;13.828;2023-03-23T10:36:41;1.07;;;1.07;;
9918;SDS011;4998;51.024;13.828;2023-03-23T10:39:20;1.10;;;1.10;;
9918;SDS011;4998;51.024;13.828;2023-03-23T10:41:49;1.27;;;1.20;;
9918;SDS011;4998;51.024;13.828;2023-03-23T10:44:18;1.20;;;1.10;;
9918;SDS011;4998;51.024;13.828;2023-03-23T10:46:48;1.30;;;1.20;;
9918;SDS011;4998;51.024;13.828;2023-03-23T10:49:21;2.37;;;1.13;;
9918;SDS011;4998;51.024;13.828;2023-03-23T10:51:53;1.67;;;1.30;;
9918;SDS011;4998;51.024;13.828;2023-03-23T10:54:32;1.50;;;1.40;;
9918;SDS011;4998;51.024;13.828;2023-03-23T10:57:12;2.20;;;2.00;;
9918;SDS011;4998;51.024;13.828;2023-03-23T10:59:46;1.20;;;1.20;;
9918;SDS011;4998;51.024;13.828;2023-03-23T11:02:18;1.30;;;1.20;;
9918;SDS011;4998;51.024;13.828;2023-03-23T11:04:53;1.30;;;1.20;;
9918;SDS011;4998;51.024;13.828;2023-03-23T11:07:25;1.67;;;1.20;;
9918;SDS011;4998;51.024;13.828;2023-03-23T11:09:56;1.50;;;1.40;;
9918;SDS011;4998;51.024;13.828;2023-03-23T11:12:33;1.50;;;1.40;;
9918;SDS011;4998;51.024;13.828;2023-03-23T11:17:56;1.33;;;1.23;;
9918;SDS011;4998;51.024;13.828;2023-03-23T11:20:25;1.00;;;1.00;;
9918;SDS011;4998;51.024;13.828;2023-03-23T11:22:53;1.20;;;1.10;;
9918;SDS011;4998;51.024;13.828;2023-03-23T11:25:22;1.00;;;1.00;;
9918;SDS011;4998;51.024;13.828;2023-03-23T11:27:51;1.17;;;1.10;;
9918;SDS011;4998;51.024;13.828;2023-03-23T11:30:21;1.20;;;1.10;;
9918;SDS011;4998;51.024;13.828;2023-03-23T11:32:52;3.23;;;1.30;;
9918;SDS011;4998;51.024;13.828;2023-03-23T11:35:22;1.10;;;1.00;;
9918;SDS011;4998;51.024;13.828;2023-03-23T11:37:52;1.10;;;1.00;;
9918;SDS011;4998;51.024;13.828;2023-03-23T11:40:23;1.77;;;1.27;;
9918;SDS011;4998;51.024;13.828;2023-03-23T11:42:59;1.13;;;1.00;;
9918;SDS011;4998;51.024;13.828;2023-03-23T11:45:34;1.40;;;1.30;;
9918;SDS011;4998;51.024;13.828;2023-03-23T11:50:51;1.13;;;1.13;;
9918;SDS011;4998;51.024;13.828;2023-03-23T11:53:22;1.00;;;0.90;;
9918;SDS011;4998;51.024;13.828;2023-03-23T11:56:01;1.20;;;1.10;;
9918;SDS011;4998;51.024;13.828;2023-03-23T11:58:35;1.10;;;1.10;;
9918;SDS011;4998;51.024;13.828;2023-03-23T12:01:04;1.30;;;1.20;;
9918;SDS011;4998;51.024;13.828;2023-03-23T12:06:25;0.90;;;0.90;;
9918;SDS011;4998;51.024;13.828;2023-03-23T12:09:03;0.97;;;0.97;;
9918;SDS011;4998;51.024;13.828;2023-03-23T12:11:39;1.00;;;1.00;;
9918;SDS011;4998;51.024;13.828;2023-03-23T12:14:21;0.90;;;0.90;;
9918;SDS011;4998;51.024;13.828;2023-03-23T12:17:01;1.00;;;1.00;;
9918;SDS011;4998;51.024;13.828;2023-03-23T12:19:38;1.10;;;1.00;;
9918;SDS011;4998;51.024;13.828;2023-03-23T12:22:13;0.90;;;0.90;;
9918;SDS011;4998;51.024;13.828;2023-03-23T12:24:51;1.23;;;1.10;;
9918;SDS011;4998;51.024;13.828;2023-03-23T12:27:33;1.37;;;1.00;;
9918;SDS011;4998;51.024;13.828;2023-03-23T12:30:21;1.03;;;1.03;;
9918;SDS011;4998;51.024;13.828;2023-03-23T12:33:09;1.00;;;1.00;;
9918;SDS011;4998;51.024;13.828;2023-03-23T12:35:47;1.30;;;1.20;;
9918;SDS011;4998;51.024;13.828;2023-03-23T12:38:31;0.97;;;0.97;;
9918;SDS011;4998;51.024;13.828;2023-03-23T12:41:16;1.20;;;1.10;;
9918;SDS011;4998;51.024;13.828;2023-03-23T12:43:49;1.00;;;1.00;;
9918;SDS011;4998;51.024;13.828;2023-03-23T12:46:27;0.80;;;0.80;;
9918;SDS011;4998;51.024;13.828;2023-03-23T12:49:04;1.10;;;1.00;;
9918;SDS011;4998;51.024;13.828;2023-03-23T12:51:37;1.00;;;1.00;;
9918;SDS011;4998;51.024;13.828;2023-03-23T12:54:09;1.07;;;0.97;;
9918;SDS011;4998;51.024;13.828;2023-03-23T12:56:43;0.80;;;0.80;;
9918;SDS011;4998;51.024;13.828;2023-03-23T12:59:17;1.07;;;1.07;;
9918;SDS011;4998;51.024;13.828;2023-03-23T13:01:50;1.30;;;1.20;;
9918;SDS011;4998;51.024;13.828;2023-03-23T13:04:22;0.97;;;0.97;;
9918;SDS011;4998;51.024;13.828;2023-03-23T13:06:53;1.33;;;1.20;;
9918;SDS011;4998;51.024;13.828;2023-03-23T13:09:24;1.30;;;1.20;;
9918;SDS011;4998;51.024;13.828;2023-03-23T13:11:58;1.20;;;1.20;;
9918;SDS011;4998;51.024;13.828;2023-03-23T13:14:32;1.20;;;1.10;;
9918;SDS011;4998;51.024;13.828;2023-03-23T13:17:20;1.23;;;1.13;;
9918;SDS011;4998;51.024;13.828;2023-03-23T13:20:00;1.00;;;1.00;;
9918;SDS011;4998;51.024;13.828;2023-03-23T13:22:54;1.73;;;1.10;;
9918;SDS011;4998;51.024;13.828;2023-03-23T13:25:30;1.20;;;1.10;;
9918;SDS011;4998;51.024;13.828;2023-03-23T13:28:13;3.13;;;0.97;;
9918;SDS011;4998;51.024;13.828;2023-03-23T13:30:53;2.77;;;1.07;;
9918;SDS011;4998;51.024;13.828;2023-03-23T13:33:25;2.23;;;1.20;;
9918;SDS011;4998;51.024;13.828;2023-03-23T13:35:56;1.10;;;1.10;;
9918;SDS011;4998;51.024;13.828;2023-03-23T13:38:23;1.40;;;1.30;;
9918;SDS011;4998;51.024;13.828;2023-03-23T13:40:53;1.00;;;1.00;;
9918;SDS011;4998;51.024;13.828;2023-03-23T13:43:25;1.20;;;1.20;;
9918;SDS011;4998;51.024;13.828;2023-03-23T13:45:55;1.00;;;0.90;;
9918;SDS011;4998;51.024;13.828;2023-03-23T13:48:39;1.00;;;0.90;;
9918;SDS011;4998;51.024;13.828;2023-03-23T13:51:23;2.33;;;1.67;;
9918;SDS011;4998;51.024;13.828;2023-03-23T13:54:05;1.20;;;1.20;;
9918;SDS011;4998;51.024;13.828;2023-03-23T13:56:41;1.10;;;1.10;;
9918;SDS011;4998;51.024;13.828;2023-03-23T13:59:13;1.30;;;1.20;;
9918;SDS011;4998;51.024;13.828;2023-03-23T14:01:42;1.10;;;1.10;;
9918;SDS011;4998;51.024;13.828;2023-03-23T14:04:11;1.37;;;1.20;;
9918;SDS011;4998;51.024;13.828;2023-03-23T14:06:40;1.00;;;1.00;;
9918;SDS011;4998;51.024;13.828;2023-03-23T14:09:11;1.10;;;1.10;;
9918;SDS011;4998;51.024;13.828;2023-03-23T14:11:48;1.47;;;1.23;;
9918;SDS011;4998;51.024;13.828;2023-03-23T14:14:20;1.10;;;1.00;;
9918;SDS011;4998;51.024;13.828;2023-03-23T14:16:52;1.53;;;1.17;;
9918;SDS011;4998;51.024;13.828;2023-03-23T14:19:31;1.93;;;1.10;;
9918;SDS011;4998;51.024;13.828;2023-03-23T14:21:58;1.93;;;1.37;;
9918;SDS011;4998;51.024;13.828;2023-03-23T14:24:27;1.63;;;1.23;;
9918;SDS011;4998;51.024;13.828;2023-03-23T14:27:01;1.20;;;1.10;;
9918;SDS011;4998;51.024;13.828;2023-03-23T14:29:34;1.17;;;1.07;;
9918;SDS011;4998;51.024;13.828;2023-03-23T14:32:04;1.17;;;1.17;;
9918;SDS011;4998;51.024;13.828;2023-03-23T14:34:33;1.20;;;1.10;;
9918;SDS011;4998;51.024;13.828;2023-03-23T14:37:01;1.20;;;1.10;;
9918;SDS011;4998;51.024;13.828;2023-03-23T14:39:29;1.97;;;1.40;;
9918;SDS011;4998;51.024;13.828;2023-03-23T14:42:00;1.20;;;1.10;;
9918;SDS011;4998;51.024;13.828;2023-03-23T14:44:32;1.30;;;1.20;;
9918;SDS011;4998;51.024;13.828;2023-03-23T14:47:02;1.17;;;1.17;;
9918;SDS011;4998;51.024;13.828;2023-03-23T14:49:34;1.43;;;1.33;;
9918;SDS011;4998;51.024;13.828;2023-03-23T14:52:03;1.60;;;1.50;;
9918;SDS011;4998;51.024;13.828;2023-03-23T14:54:36;4.83;;;1.43;;
9918;SDS011;4998;51.024;13.828;2023-03-23T14:57:10;1.30;;;1.20;;
9918;SDS011;4998;51.024;13.828;2023-03-23T14:59:40;1.30;;;1.20;;
9918;SDS011;4998;51.024;13.828;2023-03-23T15:02:11;1.10;;;1.00;;
9918;SDS011;4998;51.024;13.828;2023-03-23T15:04:43;1.50;;;1.20;;
9918;SDS011;4998;51.024;13.828;2023-03-23T15:07:12;1.50;;;1.40;;
9918;SDS011;4998;51.024;13.828;2023-03-23T15:09:42;1.30;;;1.20;;
9918;SDS011;4998;51.024;13.828;2023-03-23T15:12:13;1.10;;;1.10;;
9918;SDS011;4998;51.024;13.828;2023-03-23T15:14:48;1.50;;;1.40;;
9918;SDS011;4998;51.024;13.828;2023-03-23T15:17:21;1.30;;;1.20;;
9918;SDS011;4998;51.024;13.828;2023-03-23T15:19:50;1.10;;;1.10;;
9918;SDS011;4998;51.024;13.828;2023-03-23T15:22:21;1.27;;;1.17;;
9918;SDS011;4998;51.024;13.828;2023-03-23T15:24:50;2.10;;;1.10;;
9918;SDS011;4998;51.024;13.828;2023-03-23T15:27:24;1.03;;;1.03;;
9918;SDS011;4998;51.024;13.828;2023-03-23T15:29:53;1.37;;;1.20;;
9918;SDS011;4998;51.024;13.828;2023-03-23T15:32:27;1.87;;;1.03;;
9918;SDS011;4998;51.024;13.828;2023-03-23T15:34:56;2.70;;;1.10;;